createdAt,value
2019-02-06T00:04:04.118Z,38.58
2019-02-06T00:06:34.037Z,36.05
2019-02-06T00:09:06.079Z,37.53
2019-02-06T00:11:36.499Z,33.17
2019-02-06T00:14:06.314Z,35.40
2019-02-06T00:16:36.041Z,36.83
2019-02-06T00:19:05.676Z,42.03
2019-02-06T00:21:35.185Z,47.80
2019-02-06T00:24:05.115Z,38.53
2019-02-06T00:26:34.608Z,40.40
2019-02-06T00:29:05.905Z,38.50
2019-02-06T00:31:35.425Z,29.27
2019-02-06T00:34:05.084Z,31.05
2019-02-06T00:36:34.977Z,32.53
2019-02-06T00:39:25.745Z,29.83
2019-02-06T00:41:55.288Z,32.93
2019-02-06T00:44:24.949Z,35.33
2019-02-06T00:46:54.992Z,43.67
2019-02-06T00:49:24.545Z,29.87
2019-02-06T00:51:54.071Z,32.73
2019-02-06T00:54:42.914Z,30.60
2019-02-06T00:57:12.690Z,31.67
2019-02-06T00:59:42.348Z,35.23
2019-02-06T01:02:11.924Z,32.33
2019-02-06T01:04:41.533Z,24.50
2019-02-06T01:07:11.101Z,27.80
2019-02-06T01:09:42.253Z,29.47
2019-02-06T01:12:11.940Z,26.30
2019-02-06T01:14:41.435Z,30.95
2019-02-06T01:17:11.034Z,27.20
2019-02-06T01:19:40.807Z,25.30
2019-02-06T01:22:10.380Z,22.93
2019-02-06T01:24:39.958Z,24.53
2019-02-06T01:27:20.646Z,22.67
2019-02-06T01:29:50.298Z,24.07
2019-02-06T01:32:20.780Z,25.72
2019-02-06T01:34:50.783Z,23.80
2019-02-06T01:37:39.502Z,23.98
2019-02-06T01:40:11.602Z,18.73
2019-02-06T01:42:41.254Z,24.20
2019-02-06T01:45:11.907Z,23.23
2019-02-06T01:47:41.391Z,23.67
2019-02-06T01:50:13.835Z,23.00
2019-02-06T01:52:43.418Z,18.70
2019-02-06T01:55:13.268Z,30.73
2019-02-06T01:57:43.095Z,16.90
2019-02-06T02:00:36.243Z,27.00
2019-02-06T02:03:05.833Z,23.53
2019-02-06T02:05:37.808Z,21.10
2019-02-06T02:11:07.194Z,23.65
2019-02-06T02:13:36.734Z,22.20
2019-02-06T02:16:06.342Z,23.90
2019-02-06T02:18:35.931Z,22.63
2019-02-06T02:21:05.594Z,24.12
2019-02-06T02:23:35.069Z,19.07
2019-02-06T02:26:04.769Z,28.15
2019-02-06T02:28:34.367Z,22.67
2019-02-06T02:31:16.485Z,21.20
2019-02-06T02:36:27.271Z,21.10
2019-02-06T02:38:57.381Z,26.23
2019-02-06T02:41:27.106Z,26.70
2019-02-06T02:43:56.596Z,20.33
2019-02-06T02:46:26.129Z,22.70
2019-02-06T02:48:56.084Z,21.12
2019-02-06T02:51:25.832Z,36.70
2019-02-06T02:53:55.530Z,24.23
2019-02-06T02:56:26.007Z,24.50
2019-02-06T02:58:56.080Z,26.20
2019-02-06T03:04:42.640Z,31.50
2019-02-06T03:07:12.285Z,20.73
2019-02-06T03:10:01.385Z,23.07
2019-02-06T03:12:30.955Z,26.23
2019-02-06T03:15:00.490Z,22.50
2019-02-06T03:17:36.034Z,23.97
2019-02-06T03:20:09.047Z,22.17
2019-02-06T03:22:38.745Z,26.27
2019-02-06T03:25:09.157Z,24.30
2019-02-06T03:27:38.684Z,27.98
2019-02-06T03:30:10.716Z,27.20
2019-02-06T03:32:40.523Z,21.57
2019-02-06T03:35:10.182Z,20.33
2019-02-06T03:37:39.727Z,22.03
2019-02-06T03:40:10.299Z,18.47
2019-02-06T03:42:39.915Z,17.87
2019-02-06T03:45:10.341Z,24.07
2019-02-06T03:47:40.115Z,24.77
2019-02-06T03:50:12.986Z,23.30
2019-02-06T03:52:42.547Z,30.43
2019-02-06T03:55:12.462Z,18.57
2019-02-06T03:57:42.060Z,18.93
2019-02-06T04:00:13.766Z,20.17
2019-02-06T04:02:43.285Z,24.33
2019-02-06T04:05:13.046Z,24.00
2019-02-06T04:07:42.635Z,17.77
2019-02-06T04:10:13.561Z,26.15
2019-02-06T04:12:43.149Z,27.98
2019-02-06T04:15:13.193Z,22.63
2019-02-06T04:17:42.849Z,19.63
2019-02-06T04:20:12.489Z,21.67
2019-02-06T04:26:09.344Z,27.33
2019-02-06T04:28:38.897Z,25.50
2019-02-06T04:31:08.521Z,23.60
2019-02-06T04:33:57.605Z,22.13
2019-02-06T04:36:27.154Z,22.10
2019-02-06T04:38:56.675Z,27.50
2019-02-06T04:44:27.730Z,22.03
2019-02-06T04:46:57.347Z,21.27
2019-02-06T04:49:27.174Z,27.80
2019-02-06T04:51:57.346Z,23.47
2019-02-06T04:54:26.930Z,20.97
2019-02-06T04:56:56.873Z,25.37
2019-02-06T04:59:26.902Z,20.27
2019-02-06T05:01:56.768Z,31.68
2019-02-06T05:04:45.852Z,22.40
2019-02-06T05:07:19.122Z,19.43
2019-02-06T05:10:07.087Z,25.40
2019-02-06T05:12:36.683Z,21.30
2019-02-06T05:15:06.513Z,19.60
2019-02-06T05:17:36.241Z,26.90
2019-02-06T05:23:09.803Z,18.47
2019-02-06T05:25:39.623Z,28.10
2019-02-06T05:28:10.946Z,27.82
2019-02-06T05:30:40.489Z,28.13
2019-02-06T05:33:10.178Z,22.90
2019-02-06T05:35:39.833Z,25.60
2019-02-06T05:38:20.294Z,23.00
2019-02-06T05:40:51.477Z,24.03
2019-02-06T05:43:21.003Z,29.90
2019-02-06T05:45:50.528Z,28.00
2019-02-06T05:48:20.113Z,25.83
2019-02-06T05:51:10.531Z,25.87
2019-02-06T05:53:40.269Z,25.67
2019-02-06T05:56:09.962Z,20.07
2019-02-06T05:58:39.458Z,22.73
2019-02-06T06:01:09.004Z,32.77
2019-02-06T06:03:38.514Z,23.52
2019-02-06T06:06:11.612Z,18.80
2019-02-06T06:08:39.500Z,17.60
2019-02-06T06:11:09.023Z,29.10
2019-02-06T06:13:38.512Z,27.35
2019-02-06T06:16:08.123Z,28.40
2019-02-06T06:18:37.688Z,31.50
2019-02-06T06:21:07.268Z,29.17
2019-02-06T06:23:36.855Z,23.07
2019-02-06T06:26:06.576Z,20.40
2019-02-06T06:31:30.469Z,20.92
2019-02-06T06:34:00.002Z,19.20
2019-02-06T06:36:35.275Z,17.67
2019-02-06T06:42:41.197Z,19.70
2019-02-06T06:45:12.741Z,20.80
2019-02-06T06:48:02.121Z,30.07
2019-02-06T06:53:20.195Z,18.00
2019-02-06T06:55:49.773Z,23.27
2019-02-06T06:58:19.390Z,29.75
2019-02-06T07:00:48.954Z,24.43
2019-02-06T07:03:18.485Z,22.35
2019-02-06T07:06:08.906Z,32.33
2019-02-06T07:08:38.469Z,19.13
2019-02-06T07:11:07.963Z,18.00
2019-02-06T07:13:37.672Z,21.04
2019-02-06T07:16:07.631Z,21.10
2019-02-06T07:18:37.237Z,20.37
2019-02-06T07:21:06.976Z,18.07
2019-02-06T07:23:36.582Z,24.73
2019-02-06T07:26:06.089Z,20.80
2019-02-06T07:28:35.732Z,21.10
2019-02-06T07:31:33.852Z,22.42
2019-02-06T07:34:04.403Z,21.40
2019-02-06T07:36:34.103Z,20.12
2019-02-06T07:39:14.507Z,19.10
2019-02-06T07:41:44.034Z,22.17
2019-02-06T07:44:13.631Z,21.63
2019-02-06T07:46:43.120Z,18.00
2019-02-06T07:49:12.656Z,24.70
2019-02-06T07:51:42.168Z,27.90
2019-02-06T07:54:11.718Z,20.30
2019-02-06T07:56:41.244Z,18.50
2019-02-06T07:59:10.752Z,23.63
2019-02-06T08:01:40.264Z,23.03
2019-02-06T08:04:09.988Z,25.00
2019-02-06T08:06:39.488Z,22.60
2019-02-06T08:09:09.917Z,23.80
2019-02-06T08:11:39.472Z,22.73
2019-02-06T08:14:09.204Z,18.92
2019-02-06T08:16:38.820Z,25.27
2019-02-06T08:19:08.547Z,20.60
2019-02-06T08:21:37.968Z,24.97
2019-02-06T08:24:07.527Z,18.93
2019-02-06T08:26:36.997Z,21.97
2019-02-06T08:29:06.613Z,16.60
2019-02-06T08:31:36.334Z,20.50
2019-02-06T08:34:07.587Z,16.93
2019-02-06T08:36:37.067Z,17.77
2019-02-06T08:39:08.699Z,18.70
2019-02-06T08:41:38.243Z,23.53
2019-02-06T08:44:27.119Z,19.23
2019-02-06T08:46:56.695Z,22.43
2019-02-06T08:49:26.224Z,21.20
2019-02-06T08:51:55.740Z,18.90
2019-02-06T08:54:25.284Z,17.47
2019-02-06T08:56:54.882Z,19.90
2019-02-06T08:59:24.392Z,17.80
2019-02-06T09:01:54.085Z,17.80
2019-02-06T09:04:23.644Z,18.98
2019-02-06T09:06:53.147Z,23.47
2019-02-06T09:09:22.701Z,17.35
2019-02-06T09:11:52.294Z,18.03
2019-02-06T09:14:21.810Z,18.77
2019-02-06T09:19:40.209Z,25.40
2019-02-06T09:22:09.781Z,19.42
2019-02-06T09:24:39.273Z,22.77
2019-02-06T09:27:08.972Z,20.00
2019-02-06T09:29:49.239Z,20.27
2019-02-06T09:32:18.733Z,22.23
2019-02-06T09:34:48.286Z,21.70
2019-02-06T09:37:17.858Z,19.23
2019-02-06T09:39:47.392Z,22.20
2019-02-06T09:42:37.713Z,17.15
2019-02-06T09:45:28.352Z,20.70
2019-02-06T09:47:58.089Z,22.20
2019-02-06T09:50:35.598Z,15.10
2019-02-06T09:53:06.238Z,22.70
2019-02-06T09:55:35.809Z,20.35
2019-02-06T09:58:05.876Z,23.63
2019-02-06T10:00:36.901Z,17.43
2019-02-06T10:03:07.185Z,23.47
2019-02-06T10:05:37.125Z,18.60
2019-02-06T10:08:06.827Z,18.90
2019-02-06T10:13:18.279Z,16.53
2019-02-06T10:15:48.056Z,22.00
2019-02-06T10:18:17.551Z,21.33
2019-02-06T10:20:51.554Z,16.90
2019-02-06T10:26:35.031Z,18.20
2019-02-06T10:32:06.961Z,18.93
2019-02-06T10:34:36.523Z,18.17
2019-02-06T10:37:06.235Z,18.77
2019-02-06T10:39:35.926Z,18.20
2019-02-06T10:42:05.604Z,20.60
2019-02-06T10:44:35.094Z,19.93
2019-02-06T10:47:04.592Z,19.42
2019-02-06T10:49:53.186Z,17.80
2019-02-06T10:52:22.824Z,16.67
2019-02-06T10:54:52.546Z,20.70
2019-02-06T10:57:22.026Z,14.23
2019-02-06T10:59:51.592Z,17.03
2019-02-06T11:02:21.079Z,20.33
2019-02-06T11:05:09.932Z,16.30
2019-02-06T11:07:39.562Z,18.40
2019-02-06T11:10:09.499Z,17.80
2019-02-06T11:12:39.035Z,20.73
2019-02-06T11:15:09.543Z,25.53
2019-02-06T11:17:39.080Z,20.97
2019-02-06T11:20:13.475Z,15.00
2019-02-06T11:22:43.078Z,22.80
2019-02-06T11:25:33.503Z,22.87
2019-02-06T11:28:03.078Z,16.83
2019-02-06T11:30:33.233Z,15.40
2019-02-06T11:33:02.858Z,17.87
2019-02-06T11:35:32.410Z,14.03
2019-02-06T11:38:03.718Z,17.53
2019-02-06T11:40:33.333Z,12.27
2019-02-06T11:43:02.915Z,14.00
2019-02-06T11:45:52.440Z,20.35
2019-02-06T11:48:21.931Z,15.13
2019-02-06T11:50:51.541Z,15.90
2019-02-06T11:53:41.424Z,16.93
2019-02-06T11:56:11.162Z,15.32
2019-02-06T11:58:40.742Z,23.47
2019-02-06T12:01:30.901Z,11.10
2019-02-06T12:04:00.432Z,15.20
2019-02-06T12:06:36.070Z,12.80
2019-02-06T12:09:29.730Z,14.73
2019-02-06T12:11:59.494Z,13.23
2019-02-06T12:17:23.952Z,17.70
2019-02-06T12:19:53.467Z,14.13
2019-02-06T12:22:25.332Z,21.27
2019-02-06T12:24:55.491Z,14.40
2019-02-06T12:27:25.064Z,15.33
2019-02-06T12:29:55.407Z,17.40
2019-02-06T12:32:25.361Z,16.70
2019-02-06T12:34:55.347Z,13.25
2019-02-06T12:37:25.353Z,11.25
2019-02-06T12:39:56.592Z,14.47
2019-02-06T12:42:45.098Z,14.80
2019-02-06T12:45:15.434Z,15.10
2019-02-06T12:47:45.296Z,14.07
2019-02-06T12:50:26.453Z,12.10
2019-02-06T12:52:57.462Z,10.43
2019-02-06T12:55:53.300Z,14.90
2019-02-06T12:58:22.821Z,14.47
2019-02-06T13:00:52.441Z,14.23
2019-02-06T13:03:21.934Z,14.83
2019-02-06T13:05:51.427Z,12.13
2019-02-06T13:08:20.931Z,20.90
2019-02-06T13:13:13.233Z,12.60
2019-02-06T13:15:47.165Z,11.90
2019-02-06T13:18:34.729Z,15.78
2019-02-06T13:21:04.364Z,10.90
2019-02-06T13:23:33.894Z,16.97
2019-02-06T13:26:16.039Z,17.10
2019-02-06T13:28:45.536Z,14.40
2019-02-06T13:31:15.230Z,21.25
2019-02-06T13:36:33.267Z,13.47
2019-02-06T13:41:43.964Z,11.67
2019-02-06T13:44:13.509Z,12.50
2019-02-06T13:46:55.257Z,12.47
2019-02-06T13:49:24.765Z,15.90
2019-02-06T13:51:54.345Z,12.90
2019-02-06T13:54:23.964Z,9.28
2019-02-06T13:56:53.578Z,11.73
2019-02-06T13:59:23.193Z,15.43
2019-02-06T14:01:52.805Z,11.47
2019-02-06T14:04:41.642Z,12.17
2019-02-06T14:07:11.265Z,14.53
2019-02-06T14:09:40.883Z,13.10
2019-02-06T14:12:13.425Z,17.27
2019-02-06T14:15:00.826Z,13.93
2019-02-06T14:17:30.386Z,12.23
2019-02-06T14:20:01.110Z,9.80
2019-02-06T14:22:56.156Z,12.27
2019-02-06T14:26:04.220Z,12.07
2019-02-06T14:29:12.585Z,21.63
2019-02-06T14:35:37.309Z,9.70
2019-02-06T14:38:45.384Z,11.30
2019-02-06T14:41:53.425Z,11.50
2019-02-06T14:45:01.469Z,12.80
2019-02-06T14:47:44.490Z,10.50
2019-02-06T14:50:52.562Z,14.40
2019-02-06T14:54:00.743Z,12.73
2019-02-06T14:56:54.276Z,11.83
2019-02-06T14:59:30.116Z,16.83
2019-02-06T15:02:38.387Z,12.60
2019-02-06T15:05:46.492Z,11.78
2019-02-06T15:08:54.561Z,14.47
2019-02-06T15:12:02.612Z,8.07
2019-02-06T15:14:56.408Z,12.20
2019-02-06T15:18:04.506Z,12.87
2019-02-06T15:21:12.566Z,13.20
2019-02-06T15:24:20.605Z,12.98
2019-02-06T15:27:28.690Z,12.80
2019-02-06T15:30:36.733Z,9.83
2019-02-06T15:33:44.848Z,10.77
2019-02-06T15:36:52.957Z,15.80
2019-02-06T15:40:01.428Z,12.35
2019-02-06T15:42:53.707Z,11.20
2019-02-06T15:46:02.467Z,16.00
2019-02-06T15:49:10.529Z,13.13
2019-02-06T15:52:18.920Z,10.93
2019-02-06T15:55:26.960Z,16.00
2019-02-06T15:58:35.062Z,14.00
2019-02-06T16:01:43.096Z,11.30
2019-02-06T16:08:07.572Z,12.87
2019-02-06T16:10:49.265Z,13.60
2019-02-06T16:13:42.177Z,12.67
2019-02-06T16:16:35.532Z,15.65
2019-02-06T16:19:20.041Z,11.50
2019-02-06T16:22:29.730Z,9.83
2019-02-06T16:25:17.265Z,10.63
2019-02-06T16:28:09.095Z,11.37
2019-02-06T16:31:28.015Z,14.10
2019-02-06T16:34:36.036Z,12.70
2019-02-06T16:37:45.746Z,11.47
2019-02-06T16:40:42.422Z,12.40
2019-02-06T16:43:43.971Z,12.50
2019-02-06T16:46:52.182Z,10.83
2019-02-06T16:50:00.320Z,12.95
2019-02-06T16:52:44.680Z,14.10
2019-02-06T16:55:52.373Z,14.63
2019-02-06T16:59:00.521Z,15.25
2019-02-06T17:02:13.820Z,14.93
2019-02-06T17:05:31.101Z,13.00
2019-02-06T17:08:31.657Z,13.93
2019-02-06T17:11:39.871Z,16.10
2019-02-06T17:14:18.561Z,15.13
2019-02-06T17:17:00.742Z,15.40
2019-02-06T17:20:08.804Z,14.13
2019-02-06T17:23:16.881Z,11.87
2019-02-06T17:26:24.944Z,15.15
2019-02-06T17:29:33.546Z,15.85
2019-02-06T17:32:15.216Z,13.10
2019-02-06T17:35:23.285Z,11.33
2019-02-06T17:38:31.638Z,12.83
2019-02-06T17:41:22.745Z,15.10
2019-02-06T17:44:17.094Z,12.60
2019-02-06T17:47:25.141Z,12.27
2019-02-06T17:50:33.299Z,16.37
2019-02-06T17:53:41.395Z,14.63
2019-02-06T17:56:10.976Z,15.90
2019-02-06T17:58:42.959Z,16.48
2019-02-06T18:01:40.800Z,16.30
2019-02-06T18:04:13.059Z,10.90
2019-02-06T18:06:42.588Z,15.53
2019-02-06T18:09:22.692Z,14.77
2019-02-06T18:11:52.764Z,14.50
2019-02-06T18:14:22.379Z,11.90
2019-02-06T18:16:52.026Z,15.33
2019-02-06T18:19:27.120Z,14.13
2019-02-06T18:22:15.668Z,11.83
2019-02-06T18:24:45.444Z,14.23
2019-02-06T18:27:15.109Z,15.03
2019-02-06T18:29:44.847Z,16.20
2019-02-06T18:32:14.460Z,12.80
2019-02-06T18:34:43.987Z,13.70
2019-02-06T18:37:13.510Z,13.40
2019-02-06T18:39:43.101Z,14.90
2019-02-06T18:42:12.955Z,12.10
2019-02-06T18:47:31.415Z,11.93
2019-02-06T18:52:42.956Z,12.90
2019-02-06T18:55:12.693Z,12.30
2019-02-06T18:57:42.378Z,12.17
2019-02-06T19:00:32.413Z,12.40
2019-02-06T19:03:12.776Z,11.20
2019-02-06T19:05:44.099Z,16.12
2019-02-06T19:08:13.761Z,16.13
2019-02-06T19:11:04.123Z,14.00
2019-02-06T19:13:33.757Z,15.08
2019-02-06T19:16:15.806Z,10.43
2019-02-06T19:18:45.311Z,15.63
2019-02-06T19:21:22.440Z,11.90
2019-02-06T19:23:51.992Z,13.03
2019-02-06T19:26:21.644Z,14.13
2019-02-06T19:28:51.241Z,14.80
2019-02-06T19:31:20.866Z,15.73
2019-02-06T19:33:50.434Z,21.43
2019-02-06T19:36:20.098Z,17.85
2019-02-06T19:38:49.746Z,15.13
2019-02-06T19:41:19.281Z,16.50
2019-02-06T19:43:48.922Z,13.27
2019-02-06T19:46:37.887Z,17.67
2019-02-06T19:49:14.930Z,12.10
2019-02-06T19:51:44.547Z,14.37
2019-02-06T19:54:33.458Z,12.18
2019-02-06T19:57:03.044Z,17.90
2019-02-06T19:59:32.603Z,15.90
2019-02-06T20:02:02.185Z,17.77
2019-02-06T20:04:31.689Z,15.73
2019-02-06T20:07:01.379Z,13.93
2019-02-06T20:09:30.916Z,15.63
2019-02-06T20:12:00.531Z,14.90
2019-02-06T20:14:35.617Z,14.95
2019-02-06T20:17:16.262Z,18.05
2019-02-06T20:19:45.872Z,13.43
2019-02-06T20:22:27.996Z,13.08
2019-02-06T20:24:57.598Z,13.93
2019-02-06T20:27:27.504Z,13.00
2019-02-06T20:29:57.052Z,14.10
2019-02-06T20:32:26.648Z,13.73
2019-02-06T20:34:56.311Z,11.37
2019-02-06T20:37:25.919Z,13.57
2019-02-06T20:39:55.549Z,16.60
2019-02-06T20:42:25.239Z,12.97
2019-02-06T20:44:55.107Z,19.45
2019-02-06T20:47:24.660Z,15.48
2019-02-06T20:49:54.301Z,13.40
2019-02-06T20:52:23.973Z,14.30
2019-02-06T20:54:53.652Z,13.62
2019-02-06T20:57:23.271Z,11.43
2019-02-06T20:59:52.831Z,12.23
2019-02-06T21:02:22.370Z,10.70
2019-02-06T21:04:51.927Z,13.20
2019-02-06T21:10:03.478Z,16.17
2019-02-06T21:12:33.253Z,15.87
2019-02-06T21:15:02.892Z,12.80
2019-02-06T21:20:27.367Z,10.73
2019-02-06T21:22:56.981Z,16.07
2019-02-06T21:25:26.498Z,14.33
2019-02-06T21:27:56.199Z,17.57
2019-02-06T21:30:27.975Z,11.55
2019-02-06T21:32:57.863Z,11.40
2019-02-06T21:35:27.661Z,13.67
2019-02-06T21:37:57.863Z,15.87
2019-02-06T21:40:29.332Z,15.17
2019-02-06T21:42:58.954Z,10.80
2019-02-06T21:45:28.945Z,20.13
2019-02-06T21:47:58.604Z,14.43
2019-02-06T21:50:28.524Z,12.30
2019-02-06T21:52:58.314Z,16.03
2019-02-06T21:55:27.924Z,15.43
2019-02-06T21:57:57.450Z,9.17
2019-02-06T22:00:46.201Z,11.77
2019-02-06T22:03:16.130Z,15.43
2019-02-06T22:05:45.813Z,12.03
2019-02-06T22:08:34.690Z,12.60
2019-02-06T22:11:04.415Z,11.90
2019-02-06T22:13:41.302Z,13.47
2019-02-06T22:16:11.173Z,8.43
2019-02-06T22:18:41.194Z,12.73
2019-02-06T22:21:11.136Z,11.80
2019-02-06T22:23:41.248Z,13.90
2019-02-06T22:26:30.448Z,12.90
2019-02-06T22:29:01.601Z,18.30
2019-02-06T22:31:31.101Z,12.30
2019-02-06T22:34:00.726Z,14.47
2019-02-06T22:36:30.543Z,12.80
2019-02-06T22:39:00.157Z,11.80
2019-02-06T22:41:29.794Z,19.67
2019-02-06T22:44:06.241Z,11.70
2019-02-06T22:47:09.085Z,13.03
2019-02-06T22:49:38.737Z,17.80
2019-02-06T22:52:27.550Z,13.53
2019-02-06T22:57:51.729Z,12.33
2019-02-06T23:01:00.243Z,17.73
2019-02-06T23:03:49.978Z,15.27
2019-02-06T23:06:19.577Z,12.53
2019-02-06T23:08:49.222Z,16.60
2019-02-06T23:11:18.740Z,18.43
2019-02-06T23:13:48.379Z,16.05
2019-02-06T23:16:17.893Z,13.05
2019-02-06T23:18:49.159Z,19.70
2019-02-06T23:21:39.575Z,22.67
2019-02-06T23:24:09.257Z,15.03
2019-02-06T23:26:58.107Z,13.53
2019-02-06T23:29:27.682Z,15.85
2019-02-06T23:31:57.211Z,17.90
2019-02-06T23:34:26.853Z,15.93
2019-02-06T23:36:58.201Z,11.50
2019-02-06T23:39:27.877Z,17.30
2019-02-06T23:41:57.712Z,15.10
2019-02-06T23:44:29.200Z,15.83
2019-02-06T23:47:37.057Z,14.20
2019-02-06T23:50:06.894Z,12.90
2019-02-06T23:52:36.461Z,13.40
2019-02-06T23:55:06.299Z,16.50
2019-02-06T23:57:35.872Z,16.48
